St Pierre — FIDX — position and weather

sailwx.info

Track history (hours):
 
Tides and Currents Weather Stations Pressure Air Temp Water Temp Dewpoint Dewpoint Depression Visibility Wind Speed Wind Dir Waves Ship Positions

St Pierre

Last reported at 2016-May-03 23:33 UTC. Time now 2016-May-04 00:00 UTC.
Position N 47°17' W 002°10'.

Length 84 m; draft 5.8 m.

Type: Cargo ship. MMSI: 228024800.

Date/timePositionNaut miles runAvg speedWind from/ knotsBaromVisibWave heightAir tempDewpointWater temp
2016-May-03 23:33N 47°17' W 002°10'10 9.7
2016-May-03 22:34N 47°10' W 002°19'5 5.1
2016-May-03 21:33N 47°05' W 002°21'0 0.1
2016-May-03 20:34N 47°05' W 002°21'0 0.2
2016-May-03 19:33N 47°05' W 002°21'0 0.2
2016-May-03 18:34N 47°05' W 002°21'7 6.9
2016-May-03 17:33N 47°11' W 002°18'1211.6
2016-May-03 16:33N 47°18' W 002°04'1212.2
2016-May-03 15:33N 47°13' W 001°47'7 7.4
2016-May-03 14:34N 47°12' W 001°37'0 0.0
2016-May-03 13:33N 47°12' W 001°37'0 0.0
2016-May-03 12:34N 47°12' W 001°37'0 0.0
2016-May-03 11:34N 47°12' W 001°37'0 0.0
2016-May-03 10:34N 47°12' W 001°37'0 0.0
2016-May-03 09:33N 47°12' W 001°37'0 0.0
2016-May-03 08:34N 47°12' W 001°37'0 0.0
2016-May-03 07:34N 47°12' W 001°37'0 0.0
2016-May-03 06:33N 47°12' W 001°37'0 0.0
2016-May-03 05:34N 47°12' W 001°37'0 0.0
2016-May-03 04:34N 47°12' W 001°37'0 0.0
2016-May-03 03:33N 47°12' W 001°37'0 0.0
2016-May-03 02:33N 47°12' W 001°37'0 0.0
2016-May-03 01:33N 47°12' W 001°37'0 0.0
2016-May-03 00:33N 47°12' W 001°37'0 0.0
2016-May-02 23:34N 47°12' W 001°37'0 0.0
2016-May-02 22:33N 47°12' W 001°37'0 0.0
2016-May-02 21:34N 47°12' W 001°37'0 0.0
2016-May-02 20:34N 47°12' W 001°37'0 0.0
2016-May-02 19:33N 47°12' W 001°37'0 0.0
2016-May-02 18:34N 47°12' W 001°37'0 0.0
2016-May-02 17:33N 47°12' W 001°37'0 0.0
2016-May-02 16:33N 47°12' W 001°37'0 0.0
2016-May-02 15:33N 47°12' W 001°37'0 0.0
2016-May-02 14:34N 47°12' W 001°37'0 0.0
2016-May-02 13:34N 47°12' W 001°37'0 0.0
2016-May-02 12:33N 47°12' W 001°37'0 0.0
2016-May-02 11:34N 47°12' W 001°37'0 0.0
2016-May-02 10:34N 47°12' W 001°37'0 0.0
2016-May-02 09:34N 47°12' W 001°37'0 0.0
2016-May-02 08:34N 47°12' W 001°37'0 0.0
2016-May-02 07:33N 47°12' W 001°37'0 0.0
2016-May-02 06:33N 47°12' W 001°37'0 0.0
2016-May-02 05:34N 47°12' W 001°37'0 0.0
2016-May-01 23:09N 47°12' W 001°37'0 0.0
2016-May-01 22:15N 47°12' W 001°37'0 0.0
2016-May-01 07:30N 47°12' W 001°37'0 0.0
2016-May-01 06:27N 47°12' W 001°37'0 0.0
2016-May-01 05:33N 47°12' W 001°37'0 0.0
2016-May-01 03:31N 47°12' W 001°37'0 0.0
2016-May-01 02:28N 47°12' W 001°37'0 0.0
2016-May-01 01:34N 47°12' W 001°37'0 0.0
2016-May-01 00:33N 47°12' W 001°37'0 0.0
2016-Apr-30 23:34N 47°12' W 001°37'0 0.0
2016-Apr-30 22:33N 47°12' W 001°37'0 0.0
2016-Apr-30 21:33N 47°12' W 001°37'0 0.0
2016-Apr-30 20:34N 47°12' W 001°37'0 0.0
2016-Apr-30 19:33N 47°12' W 001°37'0 0.0
2016-Apr-30 18:33N 47°12' W 001°37'0 0.0
2016-Apr-30 17:34N 47°12' W 001°37'0 0.0
2016-Apr-30 16:34N 47°12' W 001°37'0 0.0
2016-Apr-30 15:34N 47°12' W 001°37'0 0.0
2016-Apr-30 14:33N 47°12' W 001°37'0 0.0
2016-Apr-30 13:34N 47°12' W 001°37'0 0.0
2016-Apr-30 12:33N 47°12' W 001°37'0 0.0
2016-Apr-30 11:33N 47°12' W 001°37'0 0.0
2016-Apr-30 10:33N 47°12' W 001°37'1 0.7
2016-Apr-30 09:33N 47°12' W 001°38'0 0.0
2016-Apr-30 08:33N 47°12' W 001°38'6 5.5
2016-Apr-30 07:33N 47°12' W 001°46'1110.8
2016-Apr-30 06:33N 47°17' W 002°00'1110.9
2016-Apr-30 05:33N 47°14' W 002°15'10 9.9
2016-Apr-30 04:33N 47°05' W 002°21'0 0.0
2016-Apr-30 03:34N 47°05' W 002°21'0 0.1
2016-Apr-30 02:33N 47°05' W 002°21'0 0.0
2016-Apr-30 01:33N 47°05' W 002°21'5 5.3
2016-Apr-30 00:33N 47°10' W 002°19'1212.2
2016-Apr-29 23:33N 47°18' W 002°05'1211.6
2016-Apr-29 22:33N 47°14' W 001°50'8 8.3
2016-Apr-29 21:33N 47°12' W 001°38'0 0.0
2016-Apr-29 20:33N 47°12' W 001°38'5 5.1
2016-Apr-29 19:33N 47°12' W 001°45'1110.6
2016-Apr-29 18:33N 47°17' W 001°59'1110.8
2016-Apr-29 17:33N 47°14' W 002°15'1110.5
2016-Apr-29 16:33N 47°05' W 002°21'0 0.1
2016-Apr-29 15:33N 47°05' W 002°21'0 0.0
2016-Apr-29 14:33N 47°05' W 002°21'0 0.1
2016-Apr-29 13:33N 47°05' W 002°21'9 8.7
2016-Apr-29 12:33N 47°13' W 002°17'1212.3
2016-Apr-29 11:33N 47°17' W 001°60'1212.0
2016-Apr-29 10:33N 47°12' W 001°43'4 3.8
2016-Apr-29 09:33N 47°12' W 001°38'0 0.0
2016-Apr-29 08:33N 47°12' W 001°38'9 8.7
2016-Apr-29 07:33N 47°14' W 001°50'10 9.9
2016-Apr-29 06:33N 47°18' W 002°03'1111.5
2016-Apr-29 05:33N 47°12' W 002°17'7 7.2
2016-Apr-29 04:34N 47°05' W 002°21'0 0.1
2016-Apr-29 03:33N 47°05' W 002°21'0 0.0
2016-Apr-29 02:33N 47°05' W 002°21'0 0.4
2016-Apr-29 01:33N 47°05' W 002°21'1211.9
2016-Apr-29 00:33N 47°11' W 002°36'1312.9
2016-Apr-28 23:33N 47°17' W 002°53'1313.1
2016-Apr-28 22:33N 47°24' W 003°10'1313.4
2016-Apr-28 21:33N 47°36' W 003°18'9 9.0
2016-Apr-28 20:33N 47°45' W 003°19'0 0.0
2016-Apr-28 19:33N 47°45' W 003°19'0 0.0
2016-Apr-28 18:33N 47°45' W 003°19'5 5.5
2016-Apr-28 17:34N 47°41' W 003°25'1 0.8
2016-Apr-28 16:33N 47°40' W 003°24'0 0.0
2016-Apr-28 15:33N 47°40' W 003°24'0 0.0
2016-Apr-28 14:33N 47°40' W 003°24'0 0.0
2016-Apr-28 13:33N 47°40' W 003°24'0 0.0
2016-Apr-28 12:33N 47°40' W 003°24'0 0.0
2016-Apr-28 11:33N 47°40' W 003°24'0 0.0
2016-Apr-28 10:33N 47°40' W 003°24'0 0.0
2016-Apr-28 09:33N 47°40' W 003°24'0 0.0
2016-Apr-28 08:33N 47°40' W 003°24'7 7.4
2016-Apr-28 07:33N 47°34' W 003°17'1010.1
2016-Apr-28 06:33N 47°25' W 003°10'10 9.6
2016-Apr-28 05:33N 47°20' W 002°59'1010.3
2016-Apr-28 04:34N 47°15' W 002°45'10 9.6
2016-Apr-28 03:33N 47°10' W 002°33'9 9.4
2016-Apr-28 02:33N 47°05' W 002°21'0 0.4
2016-Apr-28 01:33N 47°05' W 002°21'0 0.2
2016-Apr-28 00:33N 47°05' W 002°21'0 0.1
2016-Apr-27 23:34N 47°05' W 002°21'6 5.7
2016-Apr-27 22:33N 47°10' W 002°18'1110.7
2016-Apr-27 21:33N 47°18' W 002°07'1211.6
2016-Apr-27 20:33N 47°15' W 001°51'9 9.4
2016-Apr-27 19:33N 47°12' W 001°38'0 0.0
2016-Apr-27 18:33N 47°12' W 001°38'1 0.5
2016-Apr-27 17:33N 47°11' W 001°39'7 6.5
2016-Apr-27 16:33N 47°13' W 001°48'9 8.9
2016-Apr-27 15:33N 47°17' W 001°60'10 9.7
2016-Apr-27 14:33N 47°15' W 002°14'1110.8
2016-Apr-27 13:34N 47°06' W 002°22'0 0.2
2016-Apr-27 12:26N 47°06' W 002°21'0 0.2
2016-Apr-27 11:33N 47°06' W 002°21'0 0.1
2016-Apr-27 10:33N 47°06' W 002°21'0 0.0
2016-Apr-27 09:33N 47°06' W 002°21'2 1.7
2016-Apr-27 08:33N 47°07' W 002°21'1110.5
2016-Apr-27 07:33N 47°16' W 002°12'1 1.3
2016-Apr-27 06:33N 47°17' W 002°12'0 0.0
2016-Apr-27 05:33N 47°17' W 002°12'0 0.0
2016-Apr-27 04:32N 47°17' W 002°12'0 0.0
2016-Apr-27 03:33N 47°17' W 002°12'0 0.0
2016-Apr-27 02:33N 47°17' W 002°12'0 0.0
2016-Apr-27 01:33N 47°17' W 002°12'0 0.0
2016-Apr-27 00:33N 47°17' W 002°12'0 0.0
2016-Apr-26 23:33N 47°17' W 002°12'0 0.0
2016-Apr-26 22:33N 47°17' W 002°12'0 0.0
2016-Apr-26 21:33N 47°17' W 002°12'0 0.0
2016-Apr-26 20:33N 47°17' W 002°12'0 0.0
2016-Apr-26 19:33N 47°17' W 002°12'0 0.0
2016-Apr-26 18:33N 47°17' W 002°12'0 0.0
2016-Apr-26 17:32N 47°17' W 002°12'0 0.0
2016-Apr-26 16:33N 47°17' W 002°12'0 0.0
2016-Apr-26 15:29N 47°17' W 002°12'0 0.0
2016-Apr-26 14:18N 47°17' W 002°12'0 0.0
2016-Apr-26 13:16N 47°17' W 002°12'0 0.0
2016-Apr-26 12:18N 47°17' W 002°12'0 0.0
2016-Apr-26 11:33N 47°17' W 002°12'0 0.0
2016-Apr-26 10:33N 47°17' W 002°12'0 0.0
2016-Apr-26 09:33N 47°17' W 002°12'0 0.0
2016-Apr-26 08:33N 47°17' W 002°12'0 0.0
2016-Apr-26 07:32N 47°17' W 002°12'0 0.0
2016-Apr-26 06:33N 47°17' W 002°12'0 0.0
2016-Apr-26 05:33N 47°17' W 002°12'0 0.0
2016-Apr-26 04:29N 47°17' W 002°12'0 0.0
2016-Apr-26 03:20N 47°17' W 002°12'0 0.0
2016-Apr-26 02:33N 47°17' W 002°12'0 0.0
2016-Apr-26 01:33N 47°17' W 002°12'0 0.0
2016-Apr-26 00:30N 47°17' W 002°12'0 0.0
2016-Apr-25 23:32N 47°17' W 002°12'0 0.0
2016-Apr-25 22:33N 47°17' W 002°12'0 0.0
2016-Apr-25 21:33N 47°17' W 002°12'0 0.0
2016-Apr-25 20:33N 47°17' W 002°12'0 0.0
2016-Apr-25 19:33N 47°17' W 002°12'0 0.0
2016-Apr-25 18:33N 47°17' W 002°12'0 0.0
2016-Apr-25 17:32N 47°17' W 002°12'0 0.0
2016-Apr-25 16:33N 47°17' W 002°12'0 0.0
2016-Apr-25 15:33N 47°17' W 002°12'0 0.0
2016-Apr-25 14:32N 47°17' W 002°12'0 0.0
2016-Apr-25 13:30N 47°17' W 002°12'0 0.0
2016-Apr-25 12:24N 47°17' W 002°12'0 0.0
2016-Apr-25 11:33N 47°17' W 002°12'0 0.0
2016-Apr-25 10:33N 47°17' W 002°12'0 0.0
2016-Apr-25 09:32N 47°17' W 002°12'0 0.0
2016-Apr-25 08:33N 47°17' W 002°12'0 0.0
2016-Apr-25 07:33N 47°17' W 002°12'0 0.0
2016-Apr-25 06:33N 47°17' W 002°12'0 0.0
2016-Apr-25 05:33N 47°17' W 002°12'0 0.0
2016-Apr-25 04:33N 47°17' W 002°12'0 0.0
2016-Apr-25 03:33N 47°17' W 002°12'0 0.0
2016-Apr-25 02:33N 47°17' W 002°12'0 0.0
2016-Apr-25 01:33N 47°17' W 002°12'0 0.0
2016-Apr-25 00:33N 47°17' W 002°12'0 0.0
2016-Apr-24 23:33N 47°17' W 002°12'0 0.0
2016-Apr-24 22:30N 47°17' W 002°12'0 0.0
2016-Apr-24 21:33N 47°17' W 002°12'0 0.0
2016-Apr-24 20:33N 47°17' W 002°12'0 0.0
2016-Apr-24 19:33N 47°17' W 002°12'0 0.0
2016-Apr-24 18:33N 47°17' W 002°12'0 0.0
2016-Apr-24 17:30N 47°17' W 002°12'0 0.1
2016-Apr-24 16:30N 47°17' W 002°12'1 0.7
2016-Apr-24 15:33N 47°17' W 002°12'1 1.4
2016-Apr-24 14:33N 47°17' W 002°10'2 2.3
2016-Apr-24 13:33N 47°18' W 002°07'0 0.0
2016-Apr-24 12:33N 47°18' W 002°07'0 0.0
2016-Apr-24 11:33N 47°18' W 002°07'0 0.0
2016-Apr-24 10:33N 47°18' W 002°07'0 0.0
2016-Apr-24 09:33N 47°18' W 002°07'1111.3
2016-Apr-24 08:34N 47°15' W 001°51'10 9.7
2016-Apr-24 07:33N 47°12' W 001°38'0 0.0
2016-Apr-24 06:33N 47°12' W 001°38'0 0.0
2016-Apr-24 05:33N 47°12' W 001°38'6 5.9
2016-Apr-24 04:33N 47°13' W 001°47'1010.5
2016-Apr-24 03:33N 47°17' W 002°00'1111.1
2016-Apr-24 02:33N 47°14' W 002°16'10 9.6
2016-Apr-24 01:33N 47°05' W 002°21'0 0.2
2016-Apr-24 00:34N 47°05' W 002°21'  
Track history (hours):
 
Tides and Currents Weather Stations Pressure Air Temp Water Temp Dewpoint Dewpoint Depression Visibility Wind Speed Wind Dir Waves Ship Positions

St Pierre

Last reported at 2016-May-03 23:33 UTC. Time now 2016-May-04 00:00 UTC.
Position N 47°17' W 002°10'.

Length 84 m; draft 5.8 m.

Type: Cargo ship. MMSI: 228024800.

Date/timePositionNaut miles runAvg speedWind from/ knotsBaromVisibWave heightAir tempDewpointWater temp
2016-May-03 23:33N 47°17' W 002°10'10 9.7
2016-May-03 22:34N 47°10' W 002°19'5 5.1
2016-May-03 21:33N 47°05' W 002°21'0 0.1
2016-May-03 20:34N 47°05' W 002°21'0 0.2
2016-May-03 19:33N 47°05' W 002°21'0 0.2
2016-May-03 18:34N 47°05' W 002°21'7 6.9
2016-May-03 17:33N 47°11' W 002°18'1211.6
2016-May-03 16:33N 47°18' W 002°04'1212.2
2016-May-03 15:33N 47°13' W 001°47'7 7.4
2016-May-03 14:34N 47°12' W 001°37'0 0.0
2016-May-03 13:33N 47°12' W 001°37'0 0.0
2016-May-03 12:34N 47°12' W 001°37'0 0.0
2016-May-03 11:34N 47°12' W 001°37'0 0.0
2016-May-03 10:34N 47°12' W 001°37'0 0.0
2016-May-03 09:33N 47°12' W 001°37'0 0.0
2016-May-03 08:34N 47°12' W 001°37'0 0.0
2016-May-03 07:34N 47°12' W 001°37'0 0.0
2016-May-03 06:33N 47°12' W 001°37'0 0.0
2016-May-03 05:34N 47°12' W 001°37'0 0.0
2016-May-03 04:34N 47°12' W 001°37'0 0.0
2016-May-03 03:33N 47°12' W 001°37'0 0.0
2016-May-03 02:33N 47°12' W 001°37'0 0.0
2016-May-03 01:33N 47°12' W 001°37'0 0.0
2016-May-03 00:33N 47°12' W 001°37'0 0.0
2016-May-02 23:34N 47°12' W 001°37'0 0.0
2016-May-02 22:33N 47°12' W 001°37'0 0.0
2016-May-02 21:34N 47°12' W 001°37'0 0.0
2016-May-02 20:34N 47°12' W 001°37'0 0.0
2016-May-02 19:33N 47°12' W 001°37'0 0.0
2016-May-02 18:34N 47°12' W 001°37'0 0.0
2016-May-02 17:33N 47°12' W 001°37'0 0.0
2016-May-02 16:33N 47°12' W 001°37'0 0.0
2016-May-02 15:33N 47°12' W 001°37'0 0.0
2016-May-02 14:34N 47°12' W 001°37'0 0.0
2016-May-02 13:34N 47°12' W 001°37'0 0.0
2016-May-02 12:33N 47°12' W 001°37'0 0.0
2016-May-02 11:34N 47°12' W 001°37'0 0.0
2016-May-02 10:34N 47°12' W 001°37'0 0.0
2016-May-02 09:34N 47°12' W 001°37'0 0.0
2016-May-02 08:34N 47°12' W 001°37'0 0.0
2016-May-02 07:33N 47°12' W 001°37'0 0.0
2016-May-02 06:33N 47°12' W 001°37'0 0.0
2016-May-02 05:34N 47°12' W 001°37'0 0.0
2016-May-01 23:09N 47°12' W 001°37'0 0.0
2016-May-01 22:15N 47°12' W 001°37'0 0.0
2016-May-01 07:30N 47°12' W 001°37'0 0.0
2016-May-01 06:27N 47°12' W 001°37'0 0.0
2016-May-01 05:33N 47°12' W 001°37'0 0.0
2016-May-01 03:31N 47°12' W 001°37'0 0.0
2016-May-01 02:28N 47°12' W 001°37'0 0.0
2016-May-01 01:34N 47°12' W 001°37'0 0.0
2016-May-01 00:33N 47°12' W 001°37'0 0.0
2016-Apr-30 23:34N 47°12' W 001°37'0 0.0
2016-Apr-30 22:33N 47°12' W 001°37'0 0.0
2016-Apr-30 21:33N 47°12' W 001°37'0 0.0
2016-Apr-30 20:34N 47°12' W 001°37'0 0.0
2016-Apr-30 19:33N 47°12' W 001°37'0 0.0
2016-Apr-30 18:33N 47°12' W 001°37'0 0.0
2016-Apr-30 17:34N 47°12' W 001°37'0 0.0
2016-Apr-30 16:34N 47°12' W 001°37'0 0.0
2016-Apr-30 15:34N 47°12' W 001°37'0 0.0
2016-Apr-30 14:33N 47°12' W 001°37'0 0.0
2016-Apr-30 13:34N 47°12' W 001°37'0 0.0
2016-Apr-30 12:33N 47°12' W 001°37'0 0.0
2016-Apr-30 11:33N 47°12' W 001°37'0 0.0
2016-Apr-30 10:33N 47°12' W 001°37'1 0.7
2016-Apr-30 09:33N 47°12' W 001°38'0 0.0
2016-Apr-30 08:33N 47°12' W 001°38'6 5.5
2016-Apr-30 07:33N 47°12' W 001°46'1110.8
2016-Apr-30 06:33N 47°17' W 002°00'1110.9
2016-Apr-30 05:33N 47°14' W 002°15'10 9.9
2016-Apr-30 04:33N 47°05' W 002°21'0 0.0
2016-Apr-30 03:34N 47°05' W 002°21'0 0.1
2016-Apr-30 02:33N 47°05' W 002°21'0 0.0
2016-Apr-30 01:33N 47°05' W 002°21'5 5.3
2016-Apr-30 00:33N 47°10' W 002°19'1212.2
2016-Apr-29 23:33N 47°18' W 002°05'1211.6
2016-Apr-29 22:33N 47°14' W 001°50'8 8.3
2016-Apr-29 21:33N 47°12' W 001°38'0 0.0
2016-Apr-29 20:33N 47°12' W 001°38'5 5.1
2016-Apr-29 19:33N 47°12' W 001°45'1110.6
2016-Apr-29 18:33N 47°17' W 001°59'1110.8
2016-Apr-29 17:33N 47°14' W 002°15'1110.5
2016-Apr-29 16:33N 47°05' W 002°21'0 0.1
2016-Apr-29 15:33N 47°05' W 002°21'0 0.0
2016-Apr-29 14:33N 47°05' W 002°21'0 0.1
2016-Apr-29 13:33N 47°05' W 002°21'9 8.7
2016-Apr-29 12:33N 47°13' W 002°17'1212.3
2016-Apr-29 11:33N 47°17' W 001°60'1212.0
2016-Apr-29 10:33N 47°12' W 001°43'4 3.8
2016-Apr-29 09:33N 47°12' W 001°38'0 0.0
2016-Apr-29 08:33N 47°12' W 001°38'9 8.7
2016-Apr-29 07:33N 47°14' W 001°50'10 9.9
2016-Apr-29 06:33N 47°18' W 002°03'1111.5
2016-Apr-29 05:33N 47°12' W 002°17'7 7.2
2016-Apr-29 04:34N 47°05' W 002°21'0 0.1
2016-Apr-29 03:33N 47°05' W 002°21'0 0.0
2016-Apr-29 02:33N 47°05' W 002°21'0 0.4
2016-Apr-29 01:33N 47°05' W 002°21'1211.9
2016-Apr-29 00:33N 47°11' W 002°36'1312.9
2016-Apr-28 23:33N 47°17' W 002°53'1313.1
2016-Apr-28 22:33N 47°24' W 003°10'1313.4
2016-Apr-28 21:33N 47°36' W 003°18'9 9.0
2016-Apr-28 20:33N 47°45' W 003°19'0 0.0
2016-Apr-28 19:33N 47°45' W 003°19'0 0.0
2016-Apr-28 18:33N 47°45' W 003°19'5 5.5
2016-Apr-28 17:34N 47°41' W 003°25'1 0.8
2016-Apr-28 16:33N 47°40' W 003°24'0 0.0
2016-Apr-28 15:33N 47°40' W 003°24'0 0.0
2016-Apr-28 14:33N 47°40' W 003°24'0 0.0
2016-Apr-28 13:33N 47°40' W 003°24'0 0.0
2016-Apr-28 12:33N 47°40' W 003°24'0 0.0
2016-Apr-28 11:33N 47°40' W 003°24'0 0.0
2016-Apr-28 10:33N 47°40' W 003°24'0 0.0
2016-Apr-28 09:33N 47°40' W 003°24'0 0.0
2016-Apr-28 08:33N 47°40' W 003°24'7 7.4
2016-Apr-28 07:33N 47°34' W 003°17'1010.1
2016-Apr-28 06:33N 47°25' W 003°10'10 9.6
2016-Apr-28 05:33N 47°20' W 002°59'1010.3
2016-Apr-28 04:34N 47°15' W 002°45'10 9.6
2016-Apr-28 03:33N 47°10' W 002°33'9 9.4
2016-Apr-28 02:33N 47°05' W 002°21'0 0.4
2016-Apr-28 01:33N 47°05' W 002°21'0 0.2
2016-Apr-28 00:33N 47°05' W 002°21'0 0.1
2016-Apr-27 23:34N 47°05' W 002°21'6 5.7
2016-Apr-27 22:33N 47°10' W 002°18'1110.7
2016-Apr-27 21:33N 47°18' W 002°07'1211.6
2016-Apr-27 20:33N 47°15' W 001°51'9 9.4
2016-Apr-27 19:33N 47°12' W 001°38'0 0.0
2016-Apr-27 18:33N 47°12' W 001°38'1 0.5
2016-Apr-27 17:33N 47°11' W 001°39'7 6.5
2016-Apr-27 16:33N 47°13' W 001°48'9 8.9
2016-Apr-27 15:33N 47°17' W 001°60'10 9.7
2016-Apr-27 14:33N 47°15' W 002°14'1110.8
2016-Apr-27 13:34N 47°06' W 002°22'0 0.2
2016-Apr-27 12:26N 47°06' W 002°21'0 0.2
2016-Apr-27 11:33N 47°06' W 002°21'0 0.1
2016-Apr-27 10:33N 47°06' W 002°21'0 0.0
2016-Apr-27 09:33N 47°06' W 002°21'2 1.7
2016-Apr-27 08:33N 47°07' W 002°21'1110.5
2016-Apr-27 07:33N 47°16' W 002°12'1 1.3
2016-Apr-27 06:33N 47°17' W 002°12'0 0.0
2016-Apr-27 05:33N 47°17' W 002°12'0 0.0
2016-Apr-27 04:32N 47°17' W 002°12'0 0.0
2016-Apr-27 03:33N 47°17' W 002°12'0 0.0
2016-Apr-27 02:33N 47°17' W 002°12'0 0.0
2016-Apr-27 01:33N 47°17' W 002°12'0 0.0
2016-Apr-27 00:33N 47°17' W 002°12'0 0.0
2016-Apr-26 23:33N 47°17' W 002°12'0 0.0
2016-Apr-26 22:33N 47°17' W 002°12'0 0.0
2016-Apr-26 21:33N 47°17' W 002°12'0 0.0
2016-Apr-26 20:33N 47°17' W 002°12'0 0.0
2016-Apr-26 19:33N 47°17' W 002°12'0 0.0
2016-Apr-26 18:33N 47°17' W 002°12'0 0.0
2016-Apr-26 17:32N 47°17' W 002°12'0 0.0
2016-Apr-26 16:33N 47°17' W 002°12'0 0.0
2016-Apr-26 15:29N 47°17' W 002°12'0 0.0
2016-Apr-26 14:18N 47°17' W 002°12'0 0.0
2016-Apr-26 13:16N 47°17' W 002°12'0 0.0
2016-Apr-26 12:18N 47°17' W 002°12'0 0.0
2016-Apr-26 11:33N 47°17' W 002°12'0 0.0
2016-Apr-26 10:33N 47°17' W 002°12'0 0.0
2016-Apr-26 09:33N 47°17' W 002°12'0 0.0
2016-Apr-26 08:33N 47°17' W 002°12'0 0.0
2016-Apr-26 07:32N 47°17' W 002°12'0 0.0
2016-Apr-26 06:33N 47°17' W 002°12'0 0.0
2016-Apr-26 05:33N 47°17' W 002°12'0 0.0
2016-Apr-26 04:29N 47°17' W 002°12'0 0.0
2016-Apr-26 03:20N 47°17' W 002°12'0 0.0
2016-Apr-26 02:33N 47°17' W 002°12'0 0.0
2016-Apr-26 01:33N 47°17' W 002°12'0 0.0
2016-Apr-26 00:30N 47°17' W 002°12'0 0.0
2016-Apr-25 23:32N 47°17' W 002°12'0 0.0
2016-Apr-25 22:33N 47°17' W 002°12'0 0.0
2016-Apr-25 21:33N 47°17' W 002°12'0 0.0
2016-Apr-25 20:33N 47°17' W 002°12'0 0.0
2016-Apr-25 19:33N 47°17' W 002°12'0 0.0
2016-Apr-25 18:33N 47°17' W 002°12'0 0.0
2016-Apr-25 17:32N 47°17' W 002°12'0 0.0
2016-Apr-25 16:33N 47°17' W 002°12'0 0.0
2016-Apr-25 15:33N 47°17' W 002°12'0 0.0
2016-Apr-25 14:32N 47°17' W 002°12'0 0.0
2016-Apr-25 13:30N 47°17' W 002°12'0 0.0
2016-Apr-25 12:24N 47°17' W 002°12'0 0.0
2016-Apr-25 11:33N 47°17' W 002°12'0 0.0
2016-Apr-25 10:33N 47°17' W 002°12'0 0.0
2016-Apr-25 09:32N 47°17' W 002°12'0 0.0
2016-Apr-25 08:33N 47°17' W 002°12'0 0.0
2016-Apr-25 07:33N 47°17' W 002°12'0 0.0
2016-Apr-25 06:33N 47°17' W 002°12'0 0.0
2016-Apr-25 05:33N 47°17' W 002°12'0 0.0
2016-Apr-25 04:33N 47°17' W 002°12'0 0.0
2016-Apr-25 03:33N 47°17' W 002°12'0 0.0
2016-Apr-25 02:33N 47°17' W 002°12'0 0.0
2016-Apr-25 01:33N 47°17' W 002°12'0 0.0
2016-Apr-25 00:33N 47°17' W 002°12'0 0.0
2016-Apr-24 23:33N 47°17' W 002°12'0 0.0
2016-Apr-24 22:30N 47°17' W 002°12'0 0.0
2016-Apr-24 21:33N 47°17' W 002°12'0 0.0
2016-Apr-24 20:33N 47°17' W 002°12'0 0.0
2016-Apr-24 19:33N 47°17' W 002°12'0 0.0
2016-Apr-24 18:33N 47°17' W 002°12'0 0.0
2016-Apr-24 17:30N 47°17' W 002°12'0 0.1
2016-Apr-24 16:30N 47°17' W 002°12'1 0.7
2016-Apr-24 15:33N 47°17' W 002°12'1 1.4
2016-Apr-24 14:33N 47°17' W 002°10'2 2.3
2016-Apr-24 13:33N 47°18' W 002°07'0 0.0
2016-Apr-24 12:33N 47°18' W 002°07'0 0.0
2016-Apr-24 11:33N 47°18' W 002°07'0 0.0
2016-Apr-24 10:33N 47°18' W 002°07'0 0.0
2016-Apr-24 09:33N 47°18' W 002°07'1111.3
2016-Apr-24 08:34N 47°15' W 001°51'10 9.7
2016-Apr-24 07:33N 47°12' W 001°38'0 0.0
2016-Apr-24 06:33N 47°12' W 001°38'0 0.0
2016-Apr-24 05:33N 47°12' W 001°38'6 5.9
2016-Apr-24 04:33N 47°13' W 001°47'1010.5
2016-Apr-24 03:33N 47°17' W 002°00'1111.1
2016-Apr-24 02:33N 47°14' W 002°16'10 9.6
2016-Apr-24 01:33N 47°05' W 002°21'0 0.2
2016-Apr-24 00:34N 47°05' W 002°21'  

Dump ship's entire track history